sensor_id;sensor_type;location;lat;lon;timestamp;P1;durP1;ratioP1;P2;durP2;ratioP2
46084;SDS011;31823;47.032;8.310;2023-07-16T00:00:49;10.27;;;7.38;;
46084;SDS011;31823;47.032;8.310;2023-07-16T00:03:15;9.30;;;4.47;;
46084;SDS011;31823;47.032;8.310;2023-07-16T00:05:41;5.68;;;3.80;;
46084;SDS011;31823;47.032;8.310;2023-07-16T00:08:06;5.35;;;3.78;;
46084;SDS011;31823;47.032;8.310;2023-07-16T00:10:35;6.60;;;3.42;;
46084;SDS011;31823;47.032;8.310;2023-07-16T00:13:02;4.50;;;2.42;;
46084;SDS011;31823;47.032;8.310;2023-07-16T00:15:30;2.65;;;2.40;;
46084;SDS011;31823;47.032;8.310;2023-07-16T00:17:56;3.20;;;2.33;;
46084;SDS011;31823;47.032;8.310;2023-07-16T00:20:21;4.65;;;2.35;;
46084;SDS011;31823;47.032;8.310;2023-07-16T00:22:49;3.78;;;2.88;;
46084;SDS011;31823;47.032;8.310;2023-07-16T00:25:15;4.57;;;2.83;;
46084;SDS011;31823;47.032;8.310;2023-07-16T00:27:40;3.53;;;2.65;;
46084;SDS011;31823;47.032;8.310;2023-07-16T00:30:07;7.07;;;2.53;;
46084;SDS011;31823;47.032;8.310;2023-07-16T00:32:33;3.30;;;2.30;;
46084;SDS011;31823;47.032;8.310;2023-07-16T00:34:59;5.50;;;2.20;;
46084;SDS011;31823;47.032;8.310;2023-07-16T00:37:25;7.40;;;2.38;;
46084;SDS011;31823;47.032;8.310;2023-07-16T00:39:51;4.68;;;2.45;;
46084;SDS011;31823;47.032;8.310;2023-07-16T00:42:16;2.70;;;2.05;;
46084;SDS011;31823;47.032;8.310;2023-07-16T00:44:42;2.92;;;2.08;;
46084;SDS011;31823;47.032;8.310;2023-07-16T00:47:09;3.38;;;2.38;;
46084;SDS011;31823;47.032;8.310;2023-07-16T00:49:36;3.55;;;2.17;;
46084;SDS011;31823;47.032;8.310;2023-07-16T00:52:03;6.32;;;1.98;;
46084;SDS011;31823;47.032;8.310;2023-07-16T00:54:33;3.50;;;1.80;;
46084;SDS011;31823;47.032;8.310;2023-07-16T00:56:58;1.98;;;1.88;;
46084;SDS011;31823;47.032;8.310;2023-07-16T00:59:24;3.33;;;2.13;;
46084;SDS011;31823;47.032;8.310;2023-07-16T01:01:50;2.13;;;1.92;;
46084;SDS011;31823;47.032;8.310;2023-07-16T01:04:15;4.20;;;2.33;;
46084;SDS011;31823;47.032;8.310;2023-07-16T01:06:43;2.97;;;1.90;;
46084;SDS011;31823;47.032;8.310;2023-07-16T01:09:18;3.10;;;2.25;;
46084;SDS011;31823;47.032;8.310;2023-07-16T01:11:45;3.92;;;2.00;;
46084;SDS011;31823;47.032;8.310;2023-07-16T01:14:18;4.03;;;2.00;;
46084;SDS011;31823;47.032;8.310;2023-07-16T01:16:44;4.43;;;2.67;;
46084;SDS011;31823;47.032;8.310;2023-07-16T01:19:10;3.42;;;2.00;;
46084;SDS011;31823;47.032;8.310;2023-07-16T01:24:38;2.60;;;2.00;;
46084;SDS011;31823;47.032;8.310;2023-07-16T01:27:53;2.40;;;1.77;;
46084;SDS011;31823;47.032;8.310;2023-07-16T01:30:10;4.13;;;1.95;;
46084;SDS011;31823;47.032;8.310;2023-07-16T01:32:40;3.72;;;2.08;;
46084;SDS011;31823;47.032;8.310;2023-07-16T01:35:06;2.80;;;2.20;;
46084;SDS011;31823;47.032;8.310;2023-07-16T01:37:33;3.45;;;2.00;;
46084;SDS011;31823;47.032;8.310;2023-07-16T01:39:59;3.70;;;2.08;;
46084;SDS011;31823;47.032;8.310;2023-07-16T01:42:25;3.10;;;2.20;;
46084;SDS011;31823;47.032;8.310;2023-07-16T01:44:51;2.88;;;2.03;;
46084;SDS011;31823;47.032;8.310;2023-07-16T01:47:23;4.30;;;2.85;;
46084;SDS011;31823;47.032;8.310;2023-07-16T01:49:59;3.80;;;2.47;;
46084;SDS011;31823;47.032;8.310;2023-07-16T01:52:25;4.50;;;2.25;;
46084;SDS011;31823;47.032;8.310;2023-07-16T01:54:50;3.10;;;2.05;;
46084;SDS011;31823;47.032;8.310;2023-07-16T01:57:16;3.15;;;2.30;;
46084;SDS011;31823;47.032;8.310;2023-07-16T01:59:41;4.70;;;3.55;;
46084;SDS011;31823;47.032;8.310;2023-07-16T02:02:07;3.20;;;2.00;;
46084;SDS011;31823;47.032;8.310;2023-07-16T02:04:32;3.03;;;2.15;;
46084;SDS011;31823;47.032;8.310;2023-07-16T02:06:58;2.85;;;1.95;;
46084;SDS011;31823;47.032;8.310;2023-07-16T02:09:24;2.75;;;2.10;;
46084;SDS011;31823;47.032;8.310;2023-07-16T02:11:50;2.35;;;2.08;;
46084;SDS011;31823;47.032;8.310;2023-07-16T02:14:16;3.33;;;2.67;;
46084;SDS011;31823;47.032;8.310;2023-07-16T02:16:42;6.13;;;2.55;;
46084;SDS011;31823;47.032;8.310;2023-07-16T02:19:07;5.07;;;2.42;;
46084;SDS011;31823;47.032;8.310;2023-07-16T02:21:33;4.20;;;2.40;;
46084;SDS011;31823;47.032;8.310;2023-07-16T02:23:58;2.45;;;2.10;;
46084;SDS011;31823;47.032;8.310;2023-07-16T02:26:24;3.35;;;2.13;;
46084;SDS011;31823;47.032;8.310;2023-07-16T02:28:50;3.08;;;2.17;;
46084;SDS011;31823;47.032;8.310;2023-07-16T02:31:15;5.63;;;2.35;;
46084;SDS011;31823;47.032;8.310;2023-07-16T02:33:41;3.85;;;2.70;;
46084;SDS011;31823;47.032;8.310;2023-07-16T02:36:06;3.38;;;2.30;;
46084;SDS011;31823;47.032;8.310;2023-07-16T02:38:32;2.47;;;2.08;;
46084;SDS011;31823;47.032;8.310;2023-07-16T02:40:58;6.47;;;2.38;;
46084;SDS011;31823;47.032;8.310;2023-07-16T02:43:23;6.30;;;2.95;;
46084;SDS011;31823;47.032;8.310;2023-07-16T02:45:49;2.80;;;2.50;;
46084;SDS011;31823;47.032;8.310;2023-07-16T02:48:14;2.90;;;2.47;;
46084;SDS011;31823;47.032;8.310;2023-07-16T02:50:40;3.05;;;2.50;;
46084;SDS011;31823;47.032;8.310;2023-07-16T02:53:06;3.65;;;2.30;;
46084;SDS011;31823;47.032;8.310;2023-07-16T02:55:32;3.58;;;2.92;;
46084;SDS011;31823;47.032;8.310;2023-07-16T02:57:59;2.92;;;2.40;;
46084;SDS011;31823;47.032;8.310;2023-07-16T03:00:29;4.38;;;2.50;;
46084;SDS011;31823;47.032;8.310;2023-07-16T03:02:57;3.10;;;2.70;;
46084;SDS011;31823;47.032;8.310;2023-07-16T03:05:24;2.97;;;2.53;;
46084;SDS011;31823;47.032;8.310;2023-07-16T03:07:50;3.33;;;2.53;;
46084;SDS011;31823;47.032;8.310;2023-07-16T03:10:15;3.88;;;2.85;;
46084;SDS011;31823;47.032;8.310;2023-07-16T03:12:41;4.22;;;3.30;;
46084;SDS011;31823;47.032;8.310;2023-07-16T03:15:07;5.20;;;2.85;;
46084;SDS011;31823;47.032;8.310;2023-07-16T03:17:33;2.83;;;2.47;;
46084;SDS011;31823;47.032;8.310;2023-07-16T03:19:59;2.95;;;2.58;;
46084;SDS011;31823;47.032;8.310;2023-07-16T03:22:24;4.68;;;2.47;;
46084;SDS011;31823;47.032;8.310;2023-07-16T03:24:50;3.03;;;2.50;;
46084;SDS011;31823;47.032;8.310;2023-07-16T03:27:15;7.90;;;2.85;;
46084;SDS011;31823;47.032;8.310;2023-07-16T03:29:41;5.30;;;3.25;;
46084;SDS011;31823;47.032;8.310;2023-07-16T03:32:07;3.78;;;2.80;;
46084;SDS011;31823;47.032;8.310;2023-07-16T03:34:32;6.65;;;3.42;;
46084;SDS011;31823;47.032;8.310;2023-07-16T03:36:59;5.90;;;3.08;;
46084;SDS011;31823;47.032;8.310;2023-07-16T03:39:25;5.75;;;3.53;;
46084;SDS011;31823;47.032;8.310;2023-07-16T03:41:50;5.55;;;3.35;;
46084;SDS011;31823;47.032;8.310;2023-07-16T03:44:16;5.10;;;2.72;;
46084;SDS011;31823;47.032;8.310;2023-07-16T03:46:41;4.90;;;3.03;;
46084;SDS011;31823;47.032;8.310;2023-07-16T03:49:07;7.05;;;3.88;;
46084;SDS011;31823;47.032;8.310;2023-07-16T03:51:33;5.32;;;2.90;;
46084;SDS011;31823;47.032;8.310;2023-07-16T03:53:59;4.97;;;2.75;;
46084;SDS011;31823;47.032;8.310;2023-07-16T03:56:25;4.88;;;3.40;;
46084;SDS011;31823;47.032;8.310;2023-07-16T03:58:50;6.10;;;3.00;;
46084;SDS011;31823;47.032;8.310;2023-07-16T04:01:16;4.35;;;3.58;;
46084;SDS011;31823;47.032;8.310;2023-07-16T04:03:41;8.27;;;4.45;;
46084;SDS011;31823;47.032;8.310;2023-07-16T04:06:08;4.80;;;2.92;;
46084;SDS011;31823;47.032;8.310;2023-07-16T04:08:34;5.10;;;3.15;;
46084;SDS011;31823;47.032;8.310;2023-07-16T04:11:01;6.20;;;2.63;;
46084;SDS011;31823;47.032;8.310;2023-07-16T04:13:30;4.88;;;2.95;;
46084;SDS011;31823;47.032;8.310;2023-07-16T04:15:59;3.60;;;2.75;;
46084;SDS011;31823;47.032;8.310;2023-07-16T04:18:25;5.47;;;3.08;;
46084;SDS011;31823;47.032;8.310;2023-07-16T04:20:50;5.35;;;3.00;;
46084;SDS011;31823;47.032;8.310;2023-07-16T04:23:16;5.68;;;3.20;;
46084;SDS011;31823;47.032;8.310;2023-07-16T04:25:42;5.93;;;2.97;;
46084;SDS011;31823;47.032;8.310;2023-07-16T04:28:07;6.78;;;3.10;;
46084;SDS011;31823;47.032;8.310;2023-07-16T04:30:34;4.50;;;2.80;;
46084;SDS011;31823;47.032;8.310;2023-07-16T04:33:00;3.58;;;3.15;;
46084;SDS011;31823;47.032;8.310;2023-07-16T04:35:25;6.38;;;3.03;;
46084;SDS011;31823;47.032;8.310;2023-07-16T04:37:51;6.03;;;3.70;;
46084;SDS011;31823;47.032;8.310;2023-07-16T04:40:16;5.95;;;2.53;;
46084;SDS011;31823;47.032;8.310;2023-07-16T04:42:42;4.10;;;3.08;;
46084;SDS011;31823;47.032;8.310;2023-07-16T04:45:07;5.38;;;2.80;;
46084;SDS011;31823;47.032;8.310;2023-07-16T04:47:33;4.38;;;2.90;;
46084;SDS011;31823;47.032;8.310;2023-07-16T04:49:59;3.17;;;2.40;;
46084;SDS011;31823;47.032;8.310;2023-07-16T04:52:25;3.42;;;3.13;;
46084;SDS011;31823;47.032;8.310;2023-07-16T04:54:50;4.15;;;3.25;;
46084;SDS011;31823;47.032;8.310;2023-07-16T04:57:16;3.08;;;2.72;;
46084;SDS011;31823;47.032;8.310;2023-07-16T04:59:41;4.47;;;3.20;;
46084;SDS011;31823;47.032;8.310;2023-07-16T05:02:07;10.20;;;2.90;;
46084;SDS011;31823;47.032;8.310;2023-07-16T05:04:33;3.75;;;2.80;;
46084;SDS011;31823;47.032;8.310;2023-07-16T05:07:00;4.13;;;2.88;;
46084;SDS011;31823;47.032;8.310;2023-07-16T05:09:27;3.38;;;2.80;;
46084;SDS011;31823;47.032;8.310;2023-07-16T05:11:52;5.88;;;3.15;;
46084;SDS011;31823;47.032;8.310;2023-07-16T05:14:18;11.02;;;3.25;;
46084;SDS011;31823;47.032;8.310;2023-07-16T05:16:43;3.78;;;2.30;;
46084;SDS011;31823;47.032;8.310;2023-07-16T05:19:09;4.13;;;2.88;;
46084;SDS011;31823;47.032;8.310;2023-07-16T05:21:35;6.10;;;3.40;;
46084;SDS011;31823;47.032;8.310;2023-07-16T05:24:00;5.82;;;3.70;;
46084;SDS011;31823;47.032;8.310;2023-07-16T05:26:26;9.52;;;5.40;;
46084;SDS011;31823;47.032;8.310;2023-07-16T05:28:52;5.15;;;4.38;;
46084;SDS011;31823;47.032;8.310;2023-07-16T05:31:17;4.88;;;3.80;;
46084;SDS011;31823;47.032;8.310;2023-07-16T05:33:43;7.05;;;4.15;;
46084;SDS011;31823;47.032;8.310;2023-07-16T05:36:08;5.55;;;4.13;;
46084;SDS011;31823;47.032;8.310;2023-07-16T05:38:34;5.10;;;3.65;;
46084;SDS011;31823;47.032;8.310;2023-07-16T05:41:03;5.90;;;3.95;;
46084;SDS011;31823;47.032;8.310;2023-07-16T05:43:29;6.25;;;4.53;;
46084;SDS011;31823;47.032;8.310;2023-07-16T05:45:55;4.85;;;4.00;;
46084;SDS011;31823;47.032;8.310;2023-07-16T05:48:21;5.90;;;4.10;;
46084;SDS011;31823;47.032;8.310;2023-07-16T05:50:47;5.45;;;4.05;;
46084;SDS011;31823;47.032;8.310;2023-07-16T05:53:12;7.53;;;3.40;;
46084;SDS011;31823;47.032;8.310;2023-07-16T05:55:41;7.18;;;4.30;;
46084;SDS011;31823;47.032;8.310;2023-07-16T05:58:06;5.57;;;3.20;;
46084;SDS011;31823;47.032;8.310;2023-07-16T06:00:32;6.10;;;4.00;;
46084;SDS011;31823;47.032;8.310;2023-07-16T06:02:58;5.43;;;3.60;;
46084;SDS011;31823;47.032;8.310;2023-07-16T06:05:23;6.90;;;3.63;;
46084;SDS011;31823;47.032;8.310;2023-07-16T06:07:52;4.63;;;3.28;;
46084;SDS011;31823;47.032;8.310;2023-07-16T06:10:17;6.32;;;4.05;;
46084;SDS011;31823;47.032;8.310;2023-07-16T06:12:44;3.78;;;3.25;;
46084;SDS011;31823;47.032;8.310;2023-07-16T06:15:09;5.70;;;3.50;;
46084;SDS011;31823;47.032;8.310;2023-07-16T06:17:35;4.90;;;3.55;;
46084;SDS011;31823;47.032;8.310;2023-07-16T06:20:02;4.65;;;3.53;;
46084;SDS011;31823;47.032;8.310;2023-07-16T06:22:28;6.70;;;4.38;;
46084;SDS011;31823;47.032;8.310;2023-07-16T06:24:53;6.63;;;3.30;;
46084;SDS011;31823;47.032;8.310;2023-07-16T06:27:19;5.78;;;3.60;;
46084;SDS011;31823;47.032;8.310;2023-07-16T06:29:44;5.03;;;3.85;;
46084;SDS011;31823;47.032;8.310;2023-07-16T06:32:10;5.63;;;3.58;;
46084;SDS011;31823;47.032;8.310;2023-07-16T06:34:35;4.50;;;3.33;;
46084;SDS011;31823;47.032;8.310;2023-07-16T06:37:01;4.63;;;3.50;;
46084;SDS011;31823;47.032;8.310;2023-07-16T06:39:27;6.10;;;3.88;;
46084;SDS011;31823;47.032;8.310;2023-07-16T06:41:52;4.25;;;3.47;;
46084;SDS011;31823;47.032;8.310;2023-07-16T06:44:18;7.70;;;3.35;;
46084;SDS011;31823;47.032;8.310;2023-07-16T06:46:43;8.25;;;4.93;;
46084;SDS011;31823;47.032;8.310;2023-07-16T06:49:09;4.78;;;3.38;;
46084;SDS011;31823;47.032;8.310;2023-07-16T06:51:35;5.03;;;4.15;;
46084;SDS011;31823;47.032;8.310;2023-07-16T06:54:00;6.00;;;3.65;;
46084;SDS011;31823;47.032;8.310;2023-07-16T06:56:26;5.05;;;4.05;;
46084;SDS011;31823;47.032;8.310;2023-07-16T06:58:51;5.45;;;4.18;;
46084;SDS011;31823;47.032;8.310;2023-07-16T07:01:17;7.93;;;4.80;;
46084;SDS011;31823;47.032;8.310;2023-07-16T07:03:42;5.00;;;4.05;;
46084;SDS011;31823;47.032;8.310;2023-07-16T07:06:08;5.45;;;4.60;;
46084;SDS011;31823;47.032;8.310;2023-07-16T07:08:35;8.38;;;4.63;;
46084;SDS011;31823;47.032;8.310;2023-07-16T07:11:01;8.88;;;4.65;;
46084;SDS011;31823;47.032;8.310;2023-07-16T07:13:27;6.45;;;4.40;;
46084;SDS011;31823;47.032;8.310;2023-07-16T07:15:54;5.72;;;4.20;;
46084;SDS011;31823;47.032;8.310;2023-07-16T07:18:20;6.85;;;4.07;;
46084;SDS011;31823;47.032;8.310;2023-07-16T07:20:46;4.60;;;3.65;;
46084;SDS011;31823;47.032;8.310;2023-07-16T07:23:12;5.28;;;3.78;;
46084;SDS011;31823;47.032;8.310;2023-07-16T07:25:38;6.93;;;3.90;;
46084;SDS011;31823;47.032;8.310;2023-07-16T07:28:04;4.53;;;3.67;;
46084;SDS011;31823;47.032;8.310;2023-07-16T07:30:30;4.82;;;4.03;;
46084;SDS011;31823;47.032;8.310;2023-07-16T07:32:55;5.55;;;4.00;;
46084;SDS011;31823;47.032;8.310;2023-07-16T07:35:21;6.32;;;3.90;;
46084;SDS011;31823;47.032;8.310;2023-07-16T07:37:46;6.80;;;3.60;;
46084;SDS011;31823;47.032;8.310;2023-07-16T07:40:12;4.03;;;3.42;;
46084;SDS011;31823;47.032;8.310;2023-07-16T07:42:38;4.60;;;2.95;;
46084;SDS011;31823;47.032;8.310;2023-07-16T07:45:04;4.07;;;3.28;;
46084;SDS011;31823;47.032;8.310;2023-07-16T07:47:30;4.90;;;3.42;;
46084;SDS011;31823;47.032;8.310;2023-07-16T07:49:55;3.30;;;3.00;;
46084;SDS011;31823;47.032;8.310;2023-07-16T07:52:21;3.85;;;2.47;;
46084;SDS011;31823;47.032;8.310;2023-07-16T07:54:47;12.00;;;3.90;;
46084;SDS011;31823;47.032;8.310;2023-07-16T07:57:13;2.92;;;2.50;;
46084;SDS011;31823;47.032;8.310;2023-07-16T07:59:39;3.45;;;2.40;;
46084;SDS011;31823;47.032;8.310;2023-07-16T08:02:05;3.50;;;2.80;;
46084;SDS011;31823;47.032;8.310;2023-07-16T08:04:31;3.05;;;2.47;;
46084;SDS011;31823;47.032;8.310;2023-07-16T08:06:57;3.80;;;2.60;;
46084;SDS011;31823;47.032;8.310;2023-07-16T08:09:23;4.30;;;3.05;;
46084;SDS011;31823;47.032;8.310;2023-07-16T08:11:50;3.53;;;2.90;;
46084;SDS011;31823;47.032;8.310;2023-07-16T08:14:16;5.00;;;3.08;;
46084;SDS011;31823;47.032;8.310;2023-07-16T08:16:41;3.67;;;2.90;;
46084;SDS011;31823;47.032;8.310;2023-07-16T08:19:07;4.63;;;2.80;;
46084;SDS011;31823;47.032;8.310;2023-07-16T08:21:33;3.42;;;2.60;;
46084;SDS011;31823;47.032;8.310;2023-07-16T08:23:58;3.53;;;2.28;;
46084;SDS011;31823;47.032;8.310;2023-07-16T08:26:24;4.20;;;2.20;;
46084;SDS011;31823;47.032;8.310;2023-07-16T08:28:50;3.42;;;2.25;;
46084;SDS011;31823;47.032;8.310;2023-07-16T08:31:15;2.47;;;2.20;;
46084;SDS011;31823;47.032;8.310;2023-07-16T08:33:41;2.60;;;2.40;;
46084;SDS011;31823;47.032;8.310;2023-07-16T08:36:06;4.13;;;3.15;;
46084;SDS011;31823;47.032;8.310;2023-07-16T08:38:32;4.80;;;2.60;;
46084;SDS011;31823;47.032;8.310;2023-07-16T08:40:59;2.60;;;2.30;;
46084;SDS011;31823;47.032;8.310;2023-07-16T08:43:25;3.00;;;2.35;;
46084;SDS011;31823;47.032;8.310;2023-07-16T08:45:51;7.28;;;2.58;;
46084;SDS011;31823;47.032;8.310;2023-07-16T08:48:17;3.08;;;2.20;;
46084;SDS011;31823;47.032;8.310;2023-07-16T08:50:45;3.22;;;2.05;;
46084;SDS011;31823;47.032;8.310;2023-07-16T08:53:12;3.08;;;2.13;;
46084;SDS011;31823;47.032;8.310;2023-07-16T08:55:41;2.85;;;2.55;;
46084;SDS011;31823;47.032;8.310;2023-07-16T08:58:09;5.38;;;2.63;;
46084;SDS011;31823;47.032;8.310;2023-07-16T09:00:36;2.88;;;2.40;;
46084;SDS011;31823;47.032;8.310;2023-07-16T09:03:02;2.97;;;2.67;;
46084;SDS011;31823;47.032;8.310;2023-07-16T09:05:29;2.75;;;2.20;;
46084;SDS011;31823;47.032;8.310;2023-07-16T09:07:54;4.35;;;2.70;;
46084;SDS011;31823;47.032;8.310;2023-07-16T09:10:20;2.78;;;2.13;;
46084;SDS011;31823;47.032;8.310;2023-07-16T09:12:46;5.40;;;2.58;;
46084;SDS011;31823;47.032;8.310;2023-07-16T09:15:15;3.25;;;2.22;;
46084;SDS011;31823;47.032;8.310;2023-07-16T09:17:46;3.95;;;2.60;;
46084;SDS011;31823;47.032;8.310;2023-07-16T09:20:29;3.13;;;2.60;;
46084;SDS011;31823;47.032;8.310;2023-07-16T09:22:56;3.83;;;2.80;;
46084;SDS011;31823;47.032;8.310;2023-07-16T09:25:28;3.50;;;2.75;;
46084;SDS011;31823;47.032;8.310;2023-07-16T09:27:54;2.75;;;2.47;;
46084;SDS011;31823;47.032;8.310;2023-07-16T09:30:20;2.97;;;2.45;;
46084;SDS011;31823;47.032;8.310;2023-07-16T09:32:46;2.70;;;2.35;;
46084;SDS011;31823;47.032;8.310;2023-07-16T09:35:13;3.47;;;2.85;;
46084;SDS011;31823;47.032;8.310;2023-07-16T09:37:40;2.65;;;2.45;;
46084;SDS011;31823;47.032;8.310;2023-07-16T09:40:07;2.83;;;2.25;;
46084;SDS011;31823;47.032;8.310;2023-07-16T09:42:37;3.10;;;2.50;;
46084;SDS011;31823;47.032;8.310;2023-07-16T09:45:07;4.25;;;2.70;;
46084;SDS011;31823;47.032;8.310;2023-07-16T09:47:42;3.55;;;2.83;;
46084;SDS011;31823;47.032;8.310;2023-07-16T09:50:09;2.40;;;2.20;;
46084;SDS011;31823;47.032;8.310;2023-07-16T09:52:35;3.15;;;2.65;;
46084;SDS011;31823;47.032;8.310;2023-07-16T09:55:02;2.65;;;2.42;;
46084;SDS011;31823;47.032;8.310;2023-07-16T09:57:32;6.63;;;2.50;;
46084;SDS011;31823;47.032;8.310;2023-07-16T10:00:02;3.47;;;2.83;;
46084;SDS011;31823;47.032;8.310;2023-07-16T10:02:34;4.43;;;2.33;;
46084;SDS011;31823;47.032;8.310;2023-07-16T10:05:10;7.25;;;3.13;;
46084;SDS011;31823;47.032;8.310;2023-07-16T10:07:36;4.07;;;2.85;;
46084;SDS011;31823;47.032;8.310;2023-07-16T10:10:02;2.88;;;2.40;;
46084;SDS011;31823;47.032;8.310;2023-07-16T10:12:37;3.78;;;2.67;;
46084;SDS011;31823;47.032;8.310;2023-07-16T10:15:04;3.20;;;2.75;;
46084;SDS011;31823;47.032;8.310;2023-07-16T10:17:31;5.55;;;2.60;;
46084;SDS011;31823;47.032;8.310;2023-07-16T10:22:38;3.05;;;2.70;;
46084;SDS011;31823;47.032;8.310;2023-07-16T10:27:36;4.63;;;2.50;;
46084;SDS011;31823;47.032;8.310;2023-07-16T10:30:02;4.65;;;3.28;;
46084;SDS011;31823;47.032;8.310;2023-07-16T10:32:30;3.28;;;2.50;;
46084;SDS011;31823;47.032;8.310;2023-07-16T10:34:56;5.50;;;3.20;;
46084;SDS011;31823;47.032;8.310;2023-07-16T10:37:22;5.20;;;3.20;;
46084;SDS011;31823;47.032;8.310;2023-07-16T10:39:50;4.88;;;2.88;;
46084;SDS011;31823;47.032;8.310;2023-07-16T10:42:18;3.72;;;2.25;;
46084;SDS011;31823;47.032;8.310;2023-07-16T10:44:45;4.53;;;3.50;;
46084;SDS011;31823;47.032;8.310;2023-07-16T10:49:47;4.93;;;2.70;;
46084;SDS011;31823;47.032;8.310;2023-07-16T10:52:13;4.20;;;3.53;;
46084;SDS011;31823;47.032;8.310;2023-07-16T10:54:39;3.25;;;2.60;;
46084;SDS011;31823;47.032;8.310;2023-07-16T10:57:05;3.50;;;3.20;;
46084;SDS011;31823;47.032;8.310;2023-07-16T10:59:31;3.55;;;2.85;;
46084;SDS011;31823;47.032;8.310;2023-07-16T11:01:57;3.78;;;2.70;;
46084;SDS011;31823;47.032;8.310;2023-07-16T11:04:23;4.72;;;3.45;;
46084;SDS011;31823;47.032;8.310;2023-07-16T11:06:52;5.57;;;3.25;;
46084;SDS011;31823;47.032;8.310;2023-07-16T11:09:17;3.53;;;3.22;;
46084;SDS011;31823;47.032;8.310;2023-07-16T11:11:43;5.20;;;3.15;;
46084;SDS011;31823;47.032;8.310;2023-07-16T11:14:09;4.63;;;2.90;;
46084;SDS011;31823;47.032;8.310;2023-07-16T11:16:38;4.07;;;3.25;;
46084;SDS011;31823;47.032;8.310;2023-07-16T11:19:06;5.65;;;2.55;;
46084;SDS011;31823;47.032;8.310;2023-07-16T11:21:36;4.07;;;3.15;;
46084;SDS011;31823;47.032;8.310;2023-07-16T11:24:09;5.72;;;3.00;;
46084;SDS011;31823;47.032;8.310;2023-07-16T11:26:37;3.78;;;2.83;;
46084;SDS011;31823;47.032;8.310;2023-07-16T11:29:13;3.67;;;3.05;;
46084;SDS011;31823;47.032;8.310;2023-07-16T11:31:39;3.78;;;2.95;;
46084;SDS011;31823;47.032;8.310;2023-07-16T11:34:12;5.22;;;3.03;;
46084;SDS011;31823;47.032;8.310;2023-07-16T11:36:38;3.90;;;2.78;;
46084;SDS011;31823;47.032;8.310;2023-07-16T11:39:04;3.15;;;2.70;;
46084;SDS011;31823;47.032;8.310;2023-07-16T11:41:29;3.67;;;2.80;;
46084;SDS011;31823;47.032;8.310;2023-07-16T11:43:59;5.18;;;3.30;;
46084;SDS011;31823;47.032;8.310;2023-07-16T11:46:30;4.03;;;3.17;;
46084;SDS011;31823;47.032;8.310;2023-07-16T11:48:57;5.28;;;3.47;;
46084;SDS011;31823;47.032;8.310;2023-07-16T11:51:23;4.53;;;2.90;;
46084;SDS011;31823;47.032;8.310;2023-07-16T11:53:49;3.42;;;2.70;;
46084;SDS011;31823;47.032;8.310;2023-07-16T11:56:15;4.30;;;2.78;;
46084;SDS011;31823;47.032;8.310;2023-07-16T11:58:40;3.75;;;3.15;;
46084;SDS011;31823;47.032;8.310;2023-07-16T12:01:06;4.78;;;2.88;;
46084;SDS011;31823;47.032;8.310;2023-07-16T12:03:31;3.75;;;3.25;;
46084;SDS011;31823;47.032;8.310;2023-07-16T12:05:57;5.82;;;2.83;;
46084;SDS011;31823;47.032;8.310;2023-07-16T12:08:22;4.47;;;2.65;;
46084;SDS011;31823;47.032;8.310;2023-07-16T12:10:48;4.78;;;2.70;;
46084;SDS011;31823;47.032;8.310;2023-07-16T12:13:13;4.22;;;3.40;;
46084;SDS011;31823;47.032;8.310;2023-07-16T12:15:39;6.03;;;3.45;;
46084;SDS011;31823;47.032;8.310;2023-07-16T12:18:04;4.55;;;3.05;;
46084;SDS011;31823;47.032;8.310;2023-07-16T12:20:30;4.72;;;2.83;;
46084;SDS011;31823;47.032;8.310;2023-07-16T12:22:56;6.90;;;3.45;;
46084;SDS011;31823;47.032;8.310;2023-07-16T12:25:21;4.15;;;3.40;;
46084;SDS011;31823;47.032;8.310;2023-07-16T12:27:47;4.82;;;2.80;;
46084;SDS011;31823;47.032;8.310;2023-07-16T12:30:12;3.80;;;3.10;;
46084;SDS011;31823;47.032;8.310;2023-07-16T12:32:38;5.90;;;3.13;;
46084;SDS011;31823;47.032;8.310;2023-07-16T12:35:04;4.85;;;3.13;;
46084;SDS011;31823;47.032;8.310;2023-07-16T12:37:30;4.00;;;3.10;;
46084;SDS011;31823;47.032;8.310;2023-07-16T12:39:55;4.00;;;3.05;;
46084;SDS011;31823;47.032;8.310;2023-07-16T12:42:21;4.10;;;3.45;;
46084;SDS011;31823;47.032;8.310;2023-07-16T12:44:47;6.47;;;3.33;;
46084;SDS011;31823;47.032;8.310;2023-07-16T12:47:14;5.03;;;3.17;;
46084;SDS011;31823;47.032;8.310;2023-07-16T12:49:40;4.85;;;3.30;;
46084;SDS011;31823;47.032;8.310;2023-07-16T12:52:06;5.40;;;3.30;;
46084;SDS011;31823;47.032;8.310;2023-07-16T12:54:32;3.13;;;2.80;;
46084;SDS011;31823;47.032;8.310;2023-07-16T12:56:57;5.40;;;3.45;;
46084;SDS011;31823;47.032;8.310;2023-07-16T12:59:23;6.55;;;3.97;;
46084;SDS011;31823;47.032;8.310;2023-07-16T13:01:49;4.10;;;3.28;;
46084;SDS011;31823;47.032;8.310;2023-07-16T13:04:16;4.68;;;3.10;;
46084;SDS011;31823;47.032;8.310;2023-07-16T13:06:41;3.50;;;2.97;;
46084;SDS011;31823;47.032;8.310;2023-07-16T13:09:07;4.90;;;3.13;;
46084;SDS011;31823;47.032;8.310;2023-07-16T13:11:33;3.92;;;3.30;;
46084;SDS011;31823;47.032;8.310;2023-07-16T13:13:58;4.20;;;3.55;;
46084;SDS011;31823;47.032;8.310;2023-07-16T13:16:24;6.28;;;3.40;;
46084;SDS011;31823;47.032;8.310;2023-07-16T13:18:49;5.32;;;2.78;;
46084;SDS011;31823;47.032;8.310;2023-07-16T13:21:15;4.78;;;3.83;;
46084;SDS011;31823;47.032;8.310;2023-07-16T13:23:40;4.57;;;3.70;;
46084;SDS011;31823;47.032;8.310;2023-07-16T13:26:06;3.60;;;2.88;;
46084;SDS011;31823;47.032;8.310;2023-07-16T13:28:31;4.35;;;3.60;;
46084;SDS011;31823;47.032;8.310;2023-07-16T13:30:57;9.55;;;3.40;;
46084;SDS011;31823;47.032;8.310;2023-07-16T13:33:23;6.45;;;3.50;;
46084;SDS011;31823;47.032;8.310;2023-07-16T13:35:48;6.70;;;4.00;;
46084;SDS011;31823;47.032;8.310;2023-07-16T13:38:14;3.58;;;3.28;;
46084;SDS011;31823;47.032;8.310;2023-07-16T13:40:39;3.80;;;3.17;;
46084;SDS011;31823;47.032;8.310;2023-07-16T13:43:05;4.72;;;3.78;;
46084;SDS011;31823;47.032;8.310;2023-07-16T13:45:31;4.10;;;3.53;;
46084;SDS011;31823;47.032;8.310;2023-07-16T13:47:58;3.47;;;3.00;;
46084;SDS011;31823;47.032;8.310;2023-07-16T13:50:23;5.80;;;3.20;;
46084;SDS011;31823;47.032;8.310;2023-07-16T13:52:49;5.25;;;3.38;;
46084;SDS011;31823;47.032;8.310;2023-07-16T13:55:14;5.93;;;3.22;;
46084;SDS011;31823;47.032;8.310;2023-07-16T13:57:40;6.57;;;3.42;;
46084;SDS011;31823;47.032;8.310;2023-07-16T14:00:07;3.13;;;2.63;;
46084;SDS011;31823;47.032;8.310;2023-07-16T14:02:35;4.32;;;3.35;;
46084;SDS011;31823;47.032;8.310;2023-07-16T14:05:01;5.05;;;3.28;;
46084;SDS011;31823;47.032;8.310;2023-07-16T14:07:26;7.88;;;3.53;;
46084;SDS011;31823;47.032;8.310;2023-07-16T14:09:52;4.68;;;3.55;;
46084;SDS011;31823;47.032;8.310;2023-07-16T14:12:19;4.10;;;3.45;;
46084;SDS011;31823;47.032;8.310;2023-07-16T14:14:45;4.18;;;3.60;;
46084;SDS011;31823;47.032;8.310;2023-07-16T14:17:12;4.18;;;3.78;;
46084;SDS011;31823;47.032;8.310;2023-07-16T14:19:37;4.18;;;3.42;;
46084;SDS011;31823;47.032;8.310;2023-07-16T14:22:03;4.43;;;3.90;;
46084;SDS011;31823;47.032;8.310;2023-07-16T14:24:29;5.40;;;3.83;;
46084;SDS011;31823;47.032;8.310;2023-07-16T14:26:57;3.80;;;3.30;;
46084;SDS011;31823;47.032;8.310;2023-07-16T14:29:25;5.18;;;3.28;;
46084;SDS011;31823;47.032;8.310;2023-07-16T14:31:52;5.60;;;3.38;;
46084;SDS011;31823;47.032;8.310;2023-07-16T14:34:17;3.85;;;3.15;;
46084;SDS011;31823;47.032;8.310;2023-07-16T14:36:44;5.07;;;3.20;;
46084;SDS011;31823;47.032;8.310;2023-07-16T14:39:10;9.27;;;3.20;;
46084;SDS011;31823;47.032;8.310;2023-07-16T14:41:35;6.25;;;3.83;;
46084;SDS011;31823;47.032;8.310;2023-07-16T14:44:02;4.45;;;2.90;;
46084;SDS011;31823;47.032;8.310;2023-07-16T14:46:29;3.17;;;2.85;;
46084;SDS011;31823;47.032;8.310;2023-07-16T14:48:54;3.67;;;3.38;;
46084;SDS011;31823;47.032;8.310;2023-07-16T14:51:21;4.60;;;3.33;;
46084;SDS011;31823;47.032;8.310;2023-07-16T14:53:47;5.85;;;2.72;;